createdAt,value
2023-04-09T00:01:09.415Z,44.00
2023-04-09T00:03:38.261Z,39.87
2023-04-09T00:06:08.165Z,48.03
2023-04-09T00:08:35.451Z,37.93
2023-04-09T00:11:02.378Z,39.77
2023-04-09T00:13:38.592Z,39.63
2023-04-09T00:16:09.921Z,36.53
2023-04-09T00:18:39.243Z,41.20
2023-04-09T00:21:16.157Z,41.63
2023-04-09T00:23:43.944Z,36.80
2023-04-09T00:26:10.980Z,43.37
2023-04-09T00:28:37.998Z,39.70
2023-04-09T00:31:05.639Z,47.00
2023-04-09T00:33:32.740Z,37.43
2023-04-09T00:36:02.207Z,39.57
2023-04-09T00:38:31.905Z,40.53
2023-04-09T00:40:58.797Z,39.97
2023-04-09T00:43:25.892Z,37.70
2023-04-09T00:45:53.115Z,46.80
2023-04-09T00:48:20.872Z,37.87
2023-04-09T00:50:50.319Z,36.87
2023-04-09T00:53:18.308Z,44.53
2023-04-09T00:55:50.297Z,33.00
2023-04-09T00:58:20.556Z,34.63
2023-04-09T01:00:47.717Z,37.30
2023-04-09T01:03:17.354Z,43.37
2023-04-09T01:06:07.459Z,44.23
2023-04-09T01:09:25.256Z,38.43
2023-04-09T01:12:53.832Z,37.50
2023-04-09T01:15:32.369Z,37.40
2023-04-09T01:18:25.191Z,38.43
2023-04-09T01:21:14.541Z,45.00
2023-04-09T01:23:54.976Z,44.73
2023-04-09T01:27:01.573Z,60.90
2023-04-09T01:29:33.584Z,82.23
2023-04-09T01:32:06.056Z,81.30
2023-04-09T01:34:36.673Z,81.97
2023-04-09T01:37:04.571Z,77.60
2023-04-09T01:39:32.873Z,62.43
2023-04-09T01:42:02.106Z,80.17
2023-04-09T01:44:29.990Z,81.87
2023-04-09T01:46:59.351Z,77.60
2023-04-09T01:49:27.996Z,66.00
2023-04-09T01:51:55.379Z,84.33
2023-04-09T01:54:22.430Z,86.83
2023-04-09T01:56:49.566Z,103.27
2023-04-09T01:59:16.594Z,88.43
2023-04-09T02:01:54.505Z,87.77
2023-04-09T02:04:33.764Z,95.90
2023-04-09T02:07:10.658Z,92.93
2023-04-09T02:09:40.790Z,95.80
2023-04-09T02:12:16.949Z,92.00
2023-04-09T02:14:47.134Z,86.27
2023-04-09T02:17:17.617Z,82.37
2023-04-09T02:19:47.973Z,92.13
2023-04-09T02:22:16.938Z,85.97
2023-04-09T02:24:46.791Z,103.30
2023-04-09T02:27:13.783Z,84.27
2023-04-09T02:29:43.990Z,86.87
2023-04-09T02:32:10.953Z,88.73
2023-04-09T02:34:38.013Z,98.57
2023-04-09T02:37:05.035Z,81.77
2023-04-09T02:39:32.194Z,85.27
2023-04-09T02:41:59.200Z,100.53
2023-04-09T02:44:28.649Z,87.27
2023-04-09T02:46:56.445Z,100.03
2023-04-09T02:49:23.574Z,80.47
2023-04-09T02:51:56.056Z,93.13
2023-04-09T02:54:25.321Z,97.13
2023-04-09T02:56:52.388Z,97.13
2023-04-09T02:59:19.326Z,96.67
2023-04-09T03:01:49.399Z,107.17
2023-04-09T03:04:21.759Z,102.03
2023-04-09T03:06:51.751Z,99.60
2023-04-09T03:09:18.805Z,87.43
2023-04-09T03:11:45.747Z,110.67
2023-04-09T03:14:12.719Z,111.60
2023-04-09T03:16:41.877Z,114.67
2023-04-09T03:19:08.851Z,109.47
2023-04-09T03:21:35.903Z,107.43
2023-04-09T03:24:05.909Z,105.47
2023-04-09T03:26:36.486Z,122.27
2023-04-09T03:29:04.972Z,117.50
2023-04-09T03:31:34.654Z,122.80
2023-04-09T03:34:01.593Z,107.80
2023-04-09T03:36:31.231Z,132.03
2023-04-09T03:38:58.179Z,121.90
2023-04-09T03:41:26.657Z,110.07
2023-04-09T03:43:56.087Z,121.67
2023-04-09T03:46:25.446Z,123.23
2023-04-09T03:48:57.070Z,121.50
2023-04-09T03:51:24.171Z,101.20
2023-04-09T03:53:51.456Z,112.87
2023-04-09T03:56:18.427Z,111.93
2023-04-09T03:58:51.011Z,100.83
2023-04-09T04:01:18.190Z,109.50
2023-04-09T04:03:48.307Z,121.60
2023-04-09T04:06:17.532Z,116.60
2023-04-09T04:08:46.703Z,108.17
2023-04-09T04:11:16.168Z,117.50
2023-04-09T04:13:45.357Z,104.20
2023-04-09T04:16:14.832Z,127.50
2023-04-09T04:18:41.779Z,119.17
2023-04-09T04:21:14.620Z,113.57
2023-04-09T04:23:41.802Z,112.70
2023-04-09T04:26:10.947Z,113.33
2023-04-09T04:28:39.415Z,101.23
2023-04-09T04:31:12.917Z,105.00
2023-04-09T04:33:42.106Z,111.20
2023-04-09T04:36:11.845Z,99.03
2023-04-09T04:38:41.896Z,103.43
2023-04-09T04:41:11.271Z,88.93
2023-04-09T04:43:41.504Z,92.40
2023-04-09T04:46:08.560Z,92.20
2023-04-09T04:48:37.994Z,93.87
2023-04-09T04:51:05.150Z,91.87
2023-04-09T04:53:35.168Z,97.17
2023-04-09T04:56:04.369Z,78.50
2023-04-09T04:58:31.485Z,93.50
2023-04-09T05:00:58.528Z,93.60
2023-04-09T05:03:27.472Z,91.50
2023-04-09T05:05:54.753Z,88.97
2023-04-09T05:08:28.903Z,104.93
2023-04-09T05:10:56.298Z,84.27
2023-04-09T05:13:24.204Z,79.07
2023-04-09T05:15:54.214Z,83.17
2023-04-09T05:18:21.626Z,82.83
2023-04-09T05:20:48.543Z,71.63
2023-04-09T05:23:18.508Z,68.77
2023-04-09T05:25:45.432Z,79.20
2023-04-09T05:28:12.387Z,71.90
2023-04-09T05:30:41.917Z,62.57
2023-04-09T05:33:11.230Z,67.23
2023-04-09T05:35:41.518Z,70.43
2023-04-09T05:38:11.139Z,60.47
2023-04-09T05:40:38.108Z,78.60
2023-04-09T05:43:05.581Z,75.83
2023-04-09T05:45:32.517Z,83.70
2023-04-09T05:47:59.598Z,72.03
2023-04-09T05:50:29.222Z,72.90
2023-04-09T05:52:56.183Z,72.60
2023-04-09T05:55:23.140Z,78.67
2023-04-09T05:57:55.011Z,76.70
2023-04-09T06:00:27.542Z,71.10
2023-04-09T06:02:54.591Z,71.43
2023-04-09T06:05:23.667Z,79.80
2023-04-09T06:07:50.617Z,70.93
2023-04-09T06:10:19.778Z,61.80
2023-04-09T06:12:49.132Z,70.80
2023-04-09T06:15:17.054Z,77.77
2023-04-09T06:17:44.140Z,77.27
2023-04-09T06:20:11.758Z,74.40
2023-04-09T06:22:38.937Z,73.40
2023-04-09T06:25:07.191Z,67.30
2023-04-09T06:27:34.378Z,67.10
2023-04-09T06:30:03.853Z,73.50
2023-04-09T06:32:33.535Z,67.63
2023-04-09T06:35:02.636Z,66.77
2023-04-09T06:37:31.912Z,70.53
2023-04-09T06:40:01.394Z,79.17
2023-04-09T06:42:28.913Z,70.57
2023-04-09T06:44:56.015Z,74.33
2023-04-09T06:47:23.107Z,69.13
2023-04-09T06:49:50.038Z,74.30
2023-04-09T06:52:16.984Z,71.27
2023-04-09T06:54:46.613Z,77.97
2023-04-09T06:57:15.769Z,86.77
2023-04-09T06:59:47.449Z,73.40
2023-04-09T07:02:14.501Z,76.33
2023-04-09T07:04:41.893Z,78.07
2023-04-09T07:07:11.017Z,86.63
2023-04-09T07:09:40.445Z,71.27
2023-04-09T07:12:07.393Z,73.10
2023-04-09T07:14:34.326Z,63.53
2023-04-09T07:17:03.260Z,75.00
2023-04-09T07:19:30.930Z,75.07
2023-04-09T07:22:00.310Z,78.53
2023-04-09T07:24:30.073Z,69.97
2023-04-09T07:27:06.362Z,72.00
2023-04-09T07:29:33.291Z,66.57
2023-04-09T07:32:01.450Z,68.93
2023-04-09T07:34:31.100Z,66.33
2023-04-09T07:37:01.004Z,62.93
2023-04-09T07:39:27.944Z,69.03
2023-04-09T07:41:54.866Z,69.07
2023-04-09T07:44:24.798Z,61.47
2023-04-09T07:46:56.783Z,67.23
2023-04-09T07:49:23.816Z,66.43
2023-04-09T07:51:51.254Z,60.47
2023-04-09T07:54:23.192Z,66.77
2023-04-09T07:56:52.186Z,61.13
2023-04-09T07:59:21.788Z,62.33
2023-04-09T08:01:48.843Z,55.77
2023-04-09T08:04:18.456Z,55.73
2023-04-09T08:06:51.134Z,52.73
2023-04-09T08:09:21.317Z,61.07
2023-04-09T08:11:51.474Z,53.33
2023-04-09T08:14:18.931Z,48.50
2023-04-09T08:16:52.602Z,43.53
2023-04-09T08:19:21.855Z,47.83
2023-04-09T08:21:49.582Z,43.20
2023-04-09T08:24:19.140Z,54.60
2023-04-09T08:26:49.176Z,44.70
2023-04-09T08:29:16.269Z,42.20
2023-04-09T08:31:43.275Z,43.33
2023-04-09T08:34:10.276Z,46.47
2023-04-09T08:36:40.205Z,44.03
2023-04-09T08:39:07.069Z,45.43
2023-04-09T08:41:36.084Z,44.57
2023-04-09T08:44:05.476Z,39.50
2023-04-09T08:46:34.951Z,46.77
2023-04-09T08:49:04.628Z,44.80
2023-04-09T08:51:34.571Z,40.13
2023-04-09T08:54:06.558Z,40.83
2023-04-09T08:56:33.772Z,44.00
2023-04-09T08:59:02.952Z,44.53
2023-04-09T09:01:31.779Z,42.33
2023-04-09T09:04:11.526Z,39.23
2023-04-09T09:06:41.043Z,39.93
2023-04-09T09:09:11.842Z,44.90
2023-04-09T09:11:44.220Z,48.83
2023-04-09T09:14:13.927Z,41.40
2023-04-09T09:16:44.631Z,40.43
2023-04-09T09:19:31.459Z,41.13
2023-04-09T09:22:08.005Z,44.80
2023-04-09T09:24:51.267Z,38.20
2023-04-09T09:27:36.933Z,40.43
2023-04-09T09:30:08.658Z,40.87
2023-04-09T09:32:36.398Z,41.00
2023-04-09T09:35:09.324Z,41.00
2023-04-09T09:37:38.360Z,38.03
2023-04-09T09:40:08.924Z,41.93
2023-04-09T09:42:35.929Z,38.90
2023-04-09T09:45:17.761Z,40.70
2023-04-09T09:47:46.703Z,38.47
2023-04-09T09:50:16.161Z,43.30
2023-04-09T09:52:45.916Z,47.30
2023-04-09T09:55:19.765Z,41.30
2023-04-09T09:57:54.353Z,41.67
2023-04-09T10:00:25.545Z,39.10
2023-04-09T10:03:07.268Z,38.00
2023-04-09T10:05:36.697Z,42.50
2023-04-09T10:08:08.839Z,36.23
2023-04-09T10:10:38.477Z,37.70
2023-04-09T10:13:10.955Z,39.83
2023-04-09T10:15:38.618Z,34.60
2023-04-09T10:18:05.714Z,37.07
2023-04-09T10:21:08.068Z,36.57
2023-04-09T10:23:42.837Z,36.63
2023-04-09T10:26:10.341Z,33.20
2023-04-09T10:28:41.140Z,32.47
2023-04-09T10:31:08.618Z,29.80
2023-04-09T10:33:38.782Z,28.13
2023-04-09T10:36:10.970Z,32.60
2023-04-09T10:38:48.730Z,35.40
2023-04-09T10:41:22.786Z,31.90
2023-04-09T10:43:50.291Z,32.70
2023-04-09T10:46:37.087Z,29.77
2023-04-09T10:49:19.911Z,33.57
2023-04-09T10:52:12.583Z,29.20
2023-04-09T10:54:46.463Z,28.77
2023-04-09T10:57:22.856Z,27.90
2023-04-09T10:59:51.979Z,23.87
2023-04-09T11:02:54.835Z,29.33
2023-04-09T11:05:40.013Z,29.10
2023-04-09T11:08:14.421Z,26.50
2023-04-09T11:10:49.115Z,28.83
2023-04-09T11:13:20.033Z,25.73
2023-04-09T11:15:47.141Z,23.50
2023-04-09T11:18:23.224Z,26.33
2023-04-09T11:20:50.530Z,27.90
2023-04-09T11:23:18.698Z,27.03
2023-04-09T11:25:51.092Z,25.37
2023-04-09T11:28:21.586Z,26.10
2023-04-09T11:30:51.829Z,39.93
2023-04-09T11:33:20.268Z,26.13
2023-04-09T11:35:48.831Z,25.80
2023-04-09T11:38:18.334Z,25.50
2023-04-09T11:40:48.669Z,21.50
2023-04-09T11:43:16.900Z,27.77
2023-04-09T11:45:49.571Z,23.60
2023-04-09T11:48:21.724Z,25.33
2023-04-09T11:50:53.014Z,26.00
2023-04-09T11:53:25.293Z,22.30
2023-04-09T11:55:55.182Z,22.97
2023-04-09T11:58:28.560Z,24.80
2023-04-09T12:01:00.981Z,27.40
2023-04-09T12:03:34.377Z,22.10
2023-04-09T12:06:06.154Z,22.90
2023-04-09T12:08:37.265Z,20.87
2023-04-09T12:11:18.089Z,21.27
2023-04-09T12:13:46.927Z,24.90
2023-04-09T12:16:20.764Z,22.73
2023-04-09T12:18:50.874Z,21.20
2023-04-09T12:21:20.414Z,22.90
2023-04-09T12:23:50.439Z,23.03
2023-04-09T12:26:19.670Z,20.27
2023-04-09T12:28:48.982Z,28.23
2023-04-09T12:31:18.343Z,22.70
2023-04-09T12:33:45.545Z,21.17
2023-04-09T12:36:15.105Z,21.40
2023-04-09T12:38:42.184Z,23.87
2023-04-09T12:41:09.669Z,24.90
2023-04-09T12:43:37.279Z,22.20
2023-04-09T12:46:07.357Z,23.73
2023-04-09T12:48:35.116Z,23.80
2023-04-09T12:51:07.275Z,27.93
2023-04-09T12:53:34.433Z,25.40
2023-04-09T12:56:01.793Z,24.87
2023-04-09T12:58:29.430Z,22.60
2023-04-09T13:00:57.159Z,24.80
2023-04-09T13:03:27.837Z,19.00
2023-04-09T13:05:57.803Z,22.23
2023-04-09T13:08:25.459Z,23.97
2023-04-09T13:10:52.871Z,23.03
2023-04-09T13:13:20.117Z,29.50
2023-04-09T13:15:47.268Z,22.43
2023-04-09T13:18:17.493Z,24.43
2023-04-09T13:20:44.503Z,24.63
2023-04-09T13:23:11.694Z,22.73
2023-04-09T13:25:38.959Z,19.37
2023-04-09T13:28:08.150Z,19.57
2023-04-09T13:30:35.640Z,18.93
2023-04-09T13:33:04.769Z,19.73
2023-04-09T13:35:35.040Z,27.17
2023-04-09T13:38:04.441Z,25.20
2023-04-09T13:40:34.085Z,24.80
2023-04-09T13:43:01.479Z,22.33
2023-04-09T13:45:32.941Z,18.30
2023-04-09T13:48:00.186Z,19.17
2023-04-09T13:50:27.227Z,16.50
2023-04-09T13:52:54.504Z,16.30
2023-04-09T13:55:24.141Z,20.90
2023-04-09T13:57:51.207Z,16.30
2023-04-09T14:00:22.884Z,21.33
2023-04-09T14:02:49.949Z,15.23
2023-04-09T14:05:17.714Z,16.27
2023-04-09T14:07:44.794Z,17.53
2023-04-09T14:10:12.580Z,19.77
2023-04-09T14:12:39.556Z,14.40
2023-04-09T14:15:10.269Z,15.37
2023-04-09T14:17:37.282Z,17.13
2023-04-09T14:20:05.168Z,15.33
2023-04-09T14:22:35.079Z,17.50
2023-04-09T14:25:04.587Z,17.83
2023-04-09T14:27:34.473Z,17.03
2023-04-09T14:30:01.651Z,17.70
2023-04-09T14:32:28.852Z,19.80
2023-04-09T14:34:58.125Z,20.37
2023-04-09T14:37:27.901Z,19.97
2023-04-09T14:39:57.648Z,19.70
2023-04-09T14:42:24.722Z,16.53
2023-04-09T14:44:51.782Z,16.47
2023-04-09T14:47:18.904Z,15.87
2023-04-09T14:49:48.398Z,16.13
2023-04-09T14:52:15.491Z,13.63
2023-04-09T14:54:42.806Z,14.73
2023-04-09T14:57:09.900Z,14.10
2023-04-09T14:59:37.059Z,15.60
2023-04-09T15:02:08.833Z,20.10
2023-04-09T15:04:38.134Z,18.83
2023-04-09T15:07:06.816Z,14.40
2023-04-09T15:09:33.905Z,15.73
2023-04-09T15:12:01.536Z,24.53
2023-04-09T15:14:34.105Z,17.47
2023-04-09T15:17:01.063Z,14.67
2023-04-09T15:19:32.522Z,16.60
2023-04-09T15:21:59.617Z,13.73
2023-04-09T15:24:28.519Z,15.23
2023-04-09T15:26:57.074Z,15.83
2023-04-09T15:29:24.068Z,16.60
2023-04-09T15:31:53.359Z,19.10
2023-04-09T15:34:20.539Z,22.20
2023-04-09T15:36:47.783Z,14.27
2023-04-09T15:39:15.165Z,19.80
2023-04-09T15:41:42.266Z,16.60
2023-04-09T15:44:10.789Z,17.60
2023-04-09T15:46:43.031Z,22.93
2023-04-09T15:49:12.540Z,17.93
2023-04-09T15:51:39.568Z,14.83
2023-04-09T15:54:06.798Z,18.23
2023-04-09T15:56:36.354Z,17.50
2023-04-09T15:59:05.412Z,18.17
2023-04-09T16:01:33.184Z,15.77
2023-04-09T16:04:00.341Z,18.70
2023-04-09T16:06:27.559Z,18.80
2023-04-09T16:08:54.832Z,20.50
2023-04-09T16:11:22.320Z,17.03
2023-04-09T16:13:49.396Z,17.17
2023-04-09T16:16:19.388Z,22.67
2023-04-09T16:18:46.436Z,15.33
2023-04-09T16:21:13.776Z,24.93
2023-04-09T16:23:41.306Z,18.57
2023-04-09T16:26:11.284Z,25.40
2023-04-09T16:28:38.281Z,24.00
2023-04-09T16:31:07.999Z,24.53
2023-04-09T16:33:35.208Z,25.23
2023-04-09T16:36:02.665Z,29.07
2023-04-09T16:38:32.115Z,23.77
2023-04-09T16:41:02.133Z,24.00
2023-04-09T16:43:30.546Z,26.83
2023-04-09T16:45:57.560Z,29.03
2023-04-09T16:48:27.007Z,30.20
2023-04-09T16:50:56.591Z,30.27
2023-04-09T16:53:23.618Z,27.70
2023-04-09T16:55:50.763Z,33.57
2023-04-09T16:58:17.942Z,37.30
2023-04-09T17:00:51.856Z,33.20
2023-04-09T17:03:19.485Z,31.13
2023-04-09T17:05:49.635Z,29.00
2023-04-09T17:08:17.443Z,31.20
2023-04-09T17:10:44.949Z,31.60
2023-04-09T17:13:12.262Z,32.00
2023-04-09T17:15:39.588Z,33.40
2023-04-09T17:18:09.000Z,29.47
2023-04-09T17:20:35.958Z,32.67
2023-04-09T17:23:03.125Z,27.03
2023-04-09T17:25:30.266Z,26.47
2023-04-09T17:27:57.547Z,39.73
2023-04-09T17:30:24.573Z,30.40
2023-04-09T17:32:52.237Z,26.50
2023-04-09T17:35:19.280Z,27.03
2023-04-09T17:37:46.792Z,30.73
2023-04-09T17:40:18.649Z,28.80
2023-04-09T17:42:49.192Z,27.97
2023-04-09T17:45:18.705Z,29.13
2023-04-09T17:47:48.392Z,31.00
2023-04-09T17:50:15.495Z,31.20
2023-04-09T17:52:44.828Z,28.13
2023-04-09T17:55:15.583Z,29.30
2023-04-09T17:57:43.019Z,28.17
2023-04-09T18:00:16.287Z,33.77
2023-04-09T18:02:47.170Z,29.13
2023-04-09T18:05:14.643Z,31.23
2023-04-09T18:07:41.714Z,27.80
2023-04-09T18:10:09.139Z,32.20
2023-04-09T18:12:36.351Z,32.80
2023-04-09T18:15:04.311Z,29.23
2023-04-09T18:17:33.842Z,36.20
2023-04-09T18:20:01.398Z,33.10
2023-04-09T18:22:28.579Z,36.30
2023-04-09T18:24:56.091Z,33.00
2023-04-09T18:27:25.701Z,32.87
2023-04-09T18:29:52.711Z,37.97
2023-04-09T18:32:20.194Z,42.63
2023-04-09T18:34:50.327Z,35.17
2023-04-09T18:37:20.549Z,39.00
2023-04-09T18:39:47.975Z,46.90
2023-04-09T18:42:17.540Z,41.90
2023-04-09T18:44:47.298Z,45.70
2023-04-09T18:47:14.246Z,35.03
2023-04-09T18:49:41.606Z,37.43
2023-04-09T18:52:10.271Z,33.13
2023-04-09T18:54:38.923Z,40.50
2023-04-09T18:57:06.582Z,37.20
2023-04-09T18:59:35.200Z,31.33
2023-04-09T19:02:08.812Z,37.90
2023-04-09T19:04:39.705Z,33.93
2023-04-09T19:07:10.250Z,34.67
2023-04-09T19:09:41.960Z,44.47
2023-04-09T19:12:11.568Z,41.97
2023-04-09T19:14:40.295Z,37.97
2023-04-09T19:17:08.000Z,41.93
2023-04-09T19:19:35.116Z,46.90
2023-04-09T19:22:09.155Z,45.67
2023-04-09T19:24:38.409Z,46.63
2023-04-09T19:27:10.091Z,49.03
2023-04-09T19:29:41.562Z,46.53
2023-04-09T19:32:13.264Z,46.77
2023-04-09T19:34:40.674Z,54.43
2023-04-09T19:37:11.542Z,54.00
2023-04-09T19:39:43.280Z,44.13
2023-04-09T19:42:10.295Z,47.70
2023-04-09T19:44:39.434Z,41.93
2023-04-09T19:47:06.445Z,55.43
2023-04-09T19:49:35.751Z,51.50
2023-04-09T19:52:06.827Z,47.67
2023-04-09T19:54:34.860Z,46.67
2023-04-09T19:57:03.787Z,36.43
2023-04-09T19:59:36.297Z,44.73
2023-04-09T20:02:03.621Z,39.43
2023-04-09T20:04:30.987Z,40.93
2023-04-09T20:06:58.027Z,40.23
2023-04-09T20:09:27.657Z,50.93
2023-04-09T20:11:58.424Z,36.00
2023-04-09T20:14:27.738Z,54.30
2023-04-09T20:16:54.954Z,41.67
2023-04-09T20:19:24.388Z,49.50
2023-04-09T20:21:51.317Z,45.83
2023-04-09T20:24:18.249Z,38.27
2023-04-09T20:26:50.911Z,47.13
2023-04-09T20:29:21.008Z,36.53
2023-04-09T20:31:48.109Z,35.27
2023-04-09T20:34:15.345Z,33.47
2023-04-09T20:36:44.510Z,29.67
2023-04-09T20:39:14.015Z,35.70
2023-04-09T20:41:40.994Z,35.00
2023-04-09T20:44:10.272Z,37.90
2023-04-09T20:46:37.384Z,34.40
2023-04-09T20:49:08.994Z,32.57
2023-04-09T20:51:38.442Z,33.80
2023-04-09T20:54:05.436Z,36.30
2023-04-09T20:56:32.709Z,29.97
2023-04-09T20:58:59.703Z,34.90
2023-04-09T21:01:29.617Z,36.87
2023-04-09T21:03:56.863Z,35.33
2023-04-09T21:06:24.256Z,35.57
2023-04-09T21:08:51.695Z,37.57
2023-04-09T21:11:18.870Z,42.90
2023-04-09T21:13:54.379Z,39.07
2023-04-09T21:16:22.826Z,36.63
2023-04-09T21:18:50.473Z,39.30
2023-04-09T21:21:17.700Z,39.80
2023-04-09T21:23:44.727Z,40.10
2023-04-09T21:26:11.963Z,43.77
2023-04-09T21:28:41.486Z,42.43
2023-04-09T21:31:15.963Z,45.97
2023-04-09T21:33:45.380Z,44.53
2023-04-09T21:36:14.739Z,47.50
2023-04-09T21:38:44.200Z,48.03
2023-04-09T21:41:11.133Z,44.90
2023-04-09T21:43:40.677Z,43.37
2023-04-09T21:46:10.125Z,51.03
2023-04-09T21:48:41.043Z,46.70
2023-04-09T21:51:14.766Z,50.13
2023-04-09T21:53:43.840Z,45.97
2023-04-09T21:56:10.835Z,48.13
2023-04-09T21:58:40.246Z,43.03
2023-04-09T22:01:15.725Z,52.30
2023-04-09T22:03:49.908Z,43.43
2023-04-09T22:06:21.590Z,51.87
2023-04-09T22:08:56.161Z,50.60
2023-04-09T22:11:29.723Z,50.50
2023-04-09T22:13:57.710Z,52.43
2023-04-09T22:16:27.527Z,48.27
2023-04-09T22:18:55.289Z,51.73
2023-04-09T22:21:22.512Z,50.00
2023-04-09T22:23:52.035Z,55.17
2023-04-09T22:26:21.994Z,55.73
2023-04-09T22:28:51.437Z,46.63
2023-04-09T22:31:23.114Z,52.57
2023-04-09T22:33:50.614Z,54.03
2023-04-09T22:36:17.661Z,49.97
2023-04-09T22:38:46.974Z,55.03
2023-04-09T22:41:15.940Z,55.73
2023-04-09T22:43:42.939Z,52.73
2023-04-09T22:46:13.016Z,55.63
2023-04-09T22:48:44.941Z,49.90
2023-04-09T22:51:15.464Z,51.63
2023-04-09T22:53:46.828Z,53.30
2023-04-09T22:56:16.170Z,53.67
2023-04-09T22:58:43.214Z,57.80
2023-04-09T23:01:10.207Z,53.63
2023-04-09T23:03:39.770Z,53.70
2023-04-09T23:06:06.911Z,52.47
2023-04-09T23:08:33.870Z,53.33
2023-04-09T23:11:01.215Z,52.30
2023-04-09T23:13:34.830Z,50.63
2023-04-09T23:16:08.459Z,51.90
2023-04-09T23:18:36.319Z,56.23
2023-04-09T23:21:08.135Z,57.53
2023-04-09T23:23:39.086Z,56.00
2023-04-09T23:26:10.976Z,58.33
2023-04-09T23:28:37.951Z,55.63
2023-04-09T23:31:07.513Z,56.73
2023-04-09T23:33:39.952Z,51.37
2023-04-09T23:36:07.324Z,56.83
2023-04-09T23:38:34.309Z,55.83
2023-04-09T23:41:03.427Z,48.73
2023-04-09T23:43:30.610Z,49.47
2023-04-09T23:45:57.605Z,52.70
2023-04-09T23:48:26.856Z,55.67
2023-04-09T23:50:56.819Z,55.10
2023-04-09T23:53:23.922Z,59.40
2023-04-09T23:55:51.049Z,51.83
2023-04-09T23:58:18.755Z,49.90
